Time;durP1;ratioP1;P1;durP2;ratioP2;P2;SDS_P1;SDS_P2;PMS_P1;PMS_P2;Temp;Humidity;BMP_temperature;BMP_pressure;BME280_temperature;BME280_humidity;BME280_pressure;Samples;Min_cycle;Max_cycle;Signal;HPM_P1;HPM_P2
2024/03/09 00:00:17;;;;;;;1.23;1.20;;;;;;;4.31;100.00;101137.22;5068425;28;20040;-71
2024/03/09 00:02:47;;;;;;;1.40;1.35;;;;;;;4.23;100.00;101117.84;5077197;28;20066;-71
2024/03/09 00:05:14;;;;;;;0.40;0.40;;;;;;;4.31;100.00;101136.31;5079133;28;20068;-71
2024/03/09 00:07:40;;;;;;;1.45;1.35;;;;;;;4.30;100.00;101132.84;5073803;28;20041;-70
2024/03/09 00:10:06;;;;;;;0.95;0.93;;;;;;;4.15;100.00;101108.91;5085866;28;20127;-71
2024/03/09 00:12:33;;;;;;;2.15;2.05;;;;;;;4.20;100.00;101122.94;5078262;28;20050;-71
2024/03/09 00:15:01;;;;;;;2.60;2.40;;;;;;;4.24;100.00;101132.63;5072373;28;20046;-74
2024/03/09 00:17:27;;;;;;;1.05;0.98;;;;;;;4.26;100.00;101133.56;5070002;28;20174;-72
2024/03/09 00:19:53;;;;;;;0.98;0.98;;;;;;;4.08;100.00;101133.75;5071802;28;20051;-70
2024/03/09 00:22:20;;;;;;;2.97;2.80;;;;;;;3.91;100.00;101101.97;5058753;28;20502;-74
2024/03/09 00:24:47;;;;;;;5.35;5.05;;;;;;;3.78;100.00;101136.94;5074886;28;20091;-71
2024/03/09 00:27:16;;;;;;;0.65;0.65;;;;;;;3.76;100.00;101091.84;5072770;28;20066;-72
2024/03/09 00:29:42;;;;;;;0.43;0.43;;;;;;;4.09;100.00;101134.63;5071635;28;20062;-73
2024/03/09 00:32:08;;;;;;;3.58;3.10;;;;;;;3.84;100.00;101097.38;5059722;28;20044;-73
2024/03/09 00:34:33;;;;;;;9.02;8.57;;;;;;;4.15;100.00;101132.28;5069990;28;20068;-72
2024/03/09 00:36:59;;;;;;;0.93;0.93;;;;;;;3.86;100.00;101098.28;5069779;28;20045;-73
2024/03/09 00:39:25;;;;;;;1.00;1.00;;;;;;;4.01;100.00;101123.97;5071332;28;20046;-73
2024/03/09 00:41:50;;;;;;;0.40;0.40;;;;;;;3.88;100.00;101121.72;5067969;28;20067;-73
2024/03/09 00:44:16;;;;;;;1.95;1.85;;;;;;;3.66;100.00;101088.88;5071250;28;20040;-72
2024/03/09 00:46:42;;;;;;;5.30;4.82;;;;;;;3.89;100.00;101128.69;5070434;28;20044;-74
2024/03/09 00:49:09;;;;;;;4.43;4.13;;;;;;;3.90;100.00;101128.75;5068848;28;20464;-73
2024/03/09 00:51:35;;;;;;;1.75;1.50;;;;;;;3.89;100.00;101114.00;5073655;28;20097;-71
2024/03/09 00:54:02;;;;;;;5.15;4.85;;;;;;;3.88;100.00;101132.09;5078816;28;20041;-72
2024/03/09 00:56:29;;;;;;;0.65;0.65;;;;;;;3.72;100.00;101131.53;5073856;28;20045;-74
2024/03/09 00:58:56;;;;;;;2.05;1.95;;;;;;;3.91;100.00;101135.72;5072608;28;20409;-72
2024/03/09 01:01:23;;;;;;;1.52;1.42;;;;;;;3.67;100.00;101127.84;5070204;28;20587;-73
2024/03/09 01:03:51;;;;;;;0.68;0.68;;;;;;;3.68;100.00;101115.78;5070286;28;20086;-71
2024/03/09 01:06:21;;;;;;;6.40;5.97;;;;;;;3.66;100.00;101083.69;5081921;28;20554;-72
2024/03/09 01:08:50;;;;;;;0.88;0.88;;;;;;;3.85;100.00;101119.88;5081365;28;20040;-72
2024/03/09 01:11:19;;;;;;;1.33;1.27;;;;;;;3.55;100.00;101078.94;5076411;28;20835;-71
2024/03/09 01:13:44;;;;;;;2.00;1.90;;;;;;;3.94;100.00;101124.56;5073053;28;20051;-71
2024/03/09 01:16:11;;;;;;;2.05;1.95;;;;;;;3.88;100.00;101130.38;5075325;28;20041;-74
2024/03/09 01:18:37;;;;;;;0.68;0.68;;;;;;;3.72;100.00;101107.25;5061692;28;20054;-74
2024/03/09 01:21:03;;;;;;;1.75;1.05;;;;;;;3.70;100.00;101109.81;5067557;28;20424;-71
2024/03/09 01:23:30;;;;;;;3.95;3.75;;;;;;;3.81;100.00;101118.00;5075046;28;23611;-74
2024/03/09 01:25:57;;;;;;;2.95;2.85;;;;;;;3.62;100.00;101080.06;5066761;28;20400;-71
2024/03/09 01:28:22;;;;;;;1.63;1.52;;;;;;;3.53;100.00;101078.00;5067023;28;20496;-72
2024/03/09 01:30:48;;;;;;;0.63;0.63;;;;;;;3.73;100.00;101114.22;5072485;28;20056;-71
2024/03/09 01:33:14;;;;;;;10.90;10.15;;;;;;;3.71;100.00;101095.13;5074228;28;23451;-72
2024/03/09 01:35:40;;;;;;;0.43;0.43;;;;;;;3.78;100.00;101104.91;5071042;28;20143;-73
2024/03/09 01:38:05;;;;;;;0.73;0.73;;;;;;;3.16;100.00;101078.22;5073813;28;20036;-73
2024/03/09 01:40:31;;;;;;;2.28;1.60;;;;;;;3.53;100.00;101083.19;5070276;28;20083;-71
2024/03/09 01:42:57;;;;;;;1.95;1.85;;;;;;;3.85;100.00;101119.00;5068200;28;20059;-71
2024/03/09 01:45:25;;;;;;;1.00;0.95;;;;;;;3.73;100.00;101081.38;5067996;28;20044;-74
2024/03/09 01:47:51;;;;;;;1.20;1.10;;;;;;;3.78;100.00;101095.41;5073879;28;20089;-71
2024/03/09 01:50:19;;;;;;;4.60;4.35;;;;;;;3.61;100.00;101064.47;5061250;28;20052;-73
2024/03/09 01:52:50;;;;;;;3.35;3.15;;;;;;;3.85;100.00;101103.44;5068246;28;20055;-72
2024/03/09 01:55:18;;;;;;;11.77;7.75;;;;;;;3.66;100.00;101120.88;5070578;28;20049;-70
2024/03/09 01:57:46;;;;;;;2.53;2.38;;;;;;;3.54;100.00;101112.63;5074907;28;20116;-72
2024/03/09 02:00:16;;;;;;;0.85;0.85;;;;;;;3.50;100.00;101075.28;5067676;28;20032;-73
2024/03/09 02:02:42;;;;;;;3.15;3.03;;;;;;;3.75;100.00;101115.19;5067666;28;20032;-73
2024/03/09 02:05:10;;;;;;;1.60;1.55;;;;;;;3.69;100.00;101087.25;5069766;28;20139;-72
2024/03/09 02:07:46;;;;;;;7.22;6.78;;;;;;;3.57;100.00;101074.69;5071836;28;20106;-71
2024/03/09 02:10:13;;;;;;;4.38;4.13;;;;;;;3.73;100.00;101109.03;5049589;28;20051;-73
2024/03/09 02:12:42;;;;;;;0.50;0.50;;;;;;;3.47;100.00;101069.97;5071123;28;20049;-74
2024/03/09 02:15:12;;;;;;;0.60;0.60;;;;;;;3.71;100.00;101102.91;5071267;28;20140;-73
2024/03/09 02:17:38;;;;;;;3.25;3.03;;;;;;;3.81;100.00;101105.91;5077212;28;20107;-72
2024/03/09 02:20:10;;;;;;;2.80;2.65;;;;;;;3.80;100.00;101111.03;5073569;28;20057;-71
2024/03/09 02:22:38;;;;;;;2.28;2.17;;;;;;;3.84;100.00;101107.75;5054434;28;20487;-72
2024/03/09 02:25:05;;;;;;;1.45;1.35;;;;;;;3.68;100.00;101115.78;5071233;28;20056;-73
2024/03/09 02:27:31;;;;;;;0.30;0.30;;;;;;;3.59;100.00;101114.56;5067099;28;20443;-73
2024/03/09 02:29:57;;;;;;;0.93;0.93;;;;;;;3.61;100.00;101119.81;5070274;28;20040;-71
2024/03/09 02:32:24;;;;;;;1.67;1.60;;;;;;;3.54;100.00;101110.03;5067493;28;20060;-73
2024/03/09 02:34:49;;;;;;;1.27;1.17;;;;;;;3.54;100.00;101115.22;5073387;28;20056;-71
2024/03/09 02:37:18;;;;;;;1.50;1.40;;;;;;;3.48;100.00;101107.19;5070775;28;20113;-72
2024/03/09 02:39:45;;;;;;;0.30;0.30;;;;;;;3.27;100.00;101112.38;5090374;28;20769;-71
2024/03/09 02:42:11;;;;;;;1.48;1.40;;;;;;;3.49;100.00;101120.22;5080068;28;20389;-71
2024/03/09 02:44:40;;;;;;;1.52;1.42;;;;;;;3.57;100.00;101117.94;5087053;28;20036;-70
2024/03/09 02:47:06;;;;;;;5.70;5.40;;;;;;;3.53;100.00;101106.53;5076898;28;20063;-71
2024/03/09 02:49:32;;;;;;;1.15;1.15;;;;;;;3.28;100.00;101083.06;5077538;28;20052;-72
2024/03/09 02:51:58;;;;;;;4.07;3.83;;;;;;;3.23;100.00;101072.50;5076344;28;20084;-71
2024/03/09 02:54:24;;;;;;;2.53;2.00;;;;;;;3.52;100.00;101109.09;5076634;28;20139;-76
2024/03/09 02:56:49;;;;;;;2.05;1.95;;;;;;;3.26;100.00;101067.44;5081602;28;20484;-71
2024/03/09 02:59:16;;;;;;;1.33;1.13;;;;;;;3.48;100.00;101108.06;5081621;28;20080;-74
2024/03/09 03:01:42;;;;;;;1.25;1.20;;;;;;;3.47;100.00;101114.09;5074934;28;20056;-72
2024/03/09 03:04:07;;;;;;;0.65;0.60;;;;;;;3.28;100.00;101078.75;5072365;28;20040;-72
2024/03/09 03:06:33;;;;;;;0.40;0.40;;;;;;;3.47;100.00;101105.44;5073803;28;20450;-71
2024/03/09 03:09:15;;;;;;;3.60;2.05;;;;;;;3.65;100.00;101119.09;5076611;28;20597;-73
2024/03/09 03:11:41;;;;;;;1.77;1.67;;;;;;;3.68;100.00;101105.38;5067027;28;20036;-71
2024/03/09 03:14:09;;;;;;;0.40;0.40;;;;;;;3.57;100.00;101076.41;5091093;28;20036;-71
2024/03/09 03:16:38;;;;;;;0.88;0.88;;;;;;;3.73;100.00;101104.72;5064155;28;20147;-71
2024/03/09 03:19:09;;;;;;;2.03;1.85;;;;;;;3.65;100.00;101097.47;5068858;28;20105;-71
2024/03/09 03:21:41;;;;;;;1.90;1.80;;;;;;;3.52;100.00;101076.22;5068047;28;20571;-71
2024/03/09 03:24:10;;;;;;;0.85;0.65;;;;;;;3.77;100.00;101110.94;5066171;28;20037;-71
2024/03/09 03:26:35;;;;;;;0.60;0.60;;;;;;;3.74;100.00;101093.50;5075279;28;20064;-71
2024/03/09 03:29:01;;;;;;;10.18;9.52;;;;;;;3.81;100.00;101097.22;5069772;28;20044;-71
2024/03/09 03:31:28;;;;;;;2.05;1.95;;;;;;;3.81;100.00;101103.28;5056633;28;20044;-71
2024/03/09 03:33:56;;;;;;;9.20;8.60;;;;;;;3.89;100.00;101118.31;5073957;28;20058;-71
2024/03/09 03:36:23;;;;;;;3.80;3.65;;;;;;;3.79;100.00;101107.56;5077311;28;20059;-71
2024/03/09 03:38:49;;;;;;;1.95;1.85;;;;;;;3.86;100.00;101110.38;5075100;28;20036;-73
2024/03/09 03:41:17;;;;;;;11.13;10.05;;;;;;;3.87;100.00;101102.66;5071550;28;20074;-74
2024/03/09 03:43:44;;;;;;;2.28;2.17;;;;;;;3.73;100.00;101070.13;5050014;28;20041;-74
2024/03/09 03:46:11;;;;;;;6.70;6.30;;;;;;;3.91;100.00;101106.25;5068721;28;20155;-72
2024/03/09 03:48:44;;;;;;;1.70;1.60;;;;;;;3.74;100.00;101061.50;5053488;28;20044;-71
2024/03/09 03:51:12;;;;;;;0.60;0.60;;;;;;;3.88;100.00;101104.41;5096374;28;20032;-73
2024/03/09 03:53:39;;;;;;;0.45;0.45;;;;;;;3.86;100.00;101111.25;5077937;28;20044;-70
2024/03/09 03:56:07;;;;;;;0.38;0.38;;;;;;;3.76;100.00;101067.63;5073034;28;20052;-72
2024/03/09 03:58:33;;;;;;;3.80;2.55;;;;;;;3.85;100.00;101067.97;5073518;28;20279;-72
2024/03/09 04:00:59;;;;;;;1.02;1.02;;;;;;;3.88;100.00;101109.63;5072320;28;20048;-72
2024/03/09 04:03:30;;;;;;;0.85;0.85;;;;;;;3.87;100.00;101075.84;5077467;28;20466;-74
2024/03/09 04:05:56;;;;;;;2.88;2.70;;;;;;;3.86;100.00;101066.25;5045438;28;20064;-72
2024/03/09 04:08:21;;;;;;;0.60;0.60;;;;;;;4.09;100.00;101106.06;5073752;28;20067;-71
2024/03/09 04:10:48;;;;;;;0.40;0.40;;;;;;;3.97;100.00;101096.97;5055834;28;20416;-72
2024/03/09 04:13:14;;;;;;;3.53;3.33;;;;;;;3.97;100.00;101099.59;5080766;28;20052;-71
2024/03/09 04:15:42;;;;;;;11.02;9.95;;;;;;;3.94;100.00;101112.47;5081264;28;20041;-72
2024/03/09 04:18:08;;;;;;;3.95;3.58;;;;;;;3.64;100.00;101106.97;5077328;28;20469;-72
2024/03/09 04:20:37;;;;;;;0.70;0.70;;;;;;;3.67;100.00;101093.22;5062862;28;20439;-71
2024/03/09 04:23:07;;;;;;;9.32;7.97;;;;;;;3.93;100.00;101112.38;5081909;28;20047;-72
2024/03/09 04:25:36;;;;;;;6.25;5.82;;;;;;;3.61;100.00;101059.28;5080454;28;20724;-72
2024/03/09 04:28:02;;;;;;;2.30;2.17;;;;;;;3.83;100.00;101111.16;5084835;28;20116;-73
2024/03/09 04:30:28;;;;;;;0.30;0.30;;;;;;;3.95;100.00;101122.00;5077324;28;20127;-73
2024/03/09 04:33:00;;;;;;;3.97;3.72;;;;;;;3.98;100.00;101116.03;5079965;28;20081;-72
2024/03/09 04:35:28;;;;;;;0.85;0.40;;;;;;;3.83;100.00;101118.06;5084690;28;20045;-70
2024/03/09 04:37:55;;;;;;;0.45;0.45;;;;;;;3.57;100.00;101085.06;5083185;28;20078;-72
2024/03/09 04:40:21;;;;;;;1.40;1.30;;;;;;;3.97;100.00;101124.66;5075577;28;20047;-72
2024/03/09 04:42:46;;;;;;;2.88;2.00;;;;;;;3.63;100.00;101087.03;5082678;28;20476;-73
2024/03/09 04:45:25;;;;;;;0.50;0.50;;;;;;;3.98;100.00;101129.94;5078783;28;20044;-73
2024/03/09 04:47:51;;;;;;;0.77;0.60;;;;;;;3.66;100.00;101074.19;5103100;28;20118;-72
2024/03/09 04:50:21;;;;;;;3.05;2.85;;;;;;;4.06;100.00;101121.53;5100939;28;20060;-72
2024/03/09 04:52:47;;;;;;;0.63;0.63;;;;;;;3.94;100.00;101107.25;5076160;28;20060;-74
2024/03/09 04:55:18;;;;;;;3.60;0.90;;;;;;;4.18;100.00;101124.59;5075497;28;20056;-73
2024/03/09 04:57:44;;;;;;;0.82;0.82;;;;;;;4.02;100.00;101116.22;5082063;28;20125;-72
2024/03/09 05:00:14;;;;;;;3.03;2.92;;;;;;;3.91;100.00;101085.47;5068581;28;20062;-73
2024/03/09 05:02:47;;;;;;;1.80;1.70;;;;;;;3.96;100.00;101090.03;5083771;28;20028;-72
2024/03/09 05:05:14;;;;;;;3.00;2.90;;;;;;;4.02;100.00;101108.41;5074593;28;20044;-73
2024/03/09 05:07:53;;;;;;;3.13;3.03;;;;;;;3.91;100.00;101072.50;5077794;28;20043;-72
2024/03/09 05:10:20;;;;;;;12.07;5.57;;;;;;;4.04;100.00;101118.00;5078413;28;20051;-72
2024/03/09 05:12:56;;;;;;;2.47;2.38;;;;;;;3.99;100.00;101076.28;5071196;28;20120;-72
2024/03/09 05:15:29;;;;;;;0.82;0.75;;;;;;;4.02;100.00;101085.06;5060583;28;20143;-72
2024/03/09 05:17:56;;;;;;;1.65;1.55;;;;;;;4.21;100.00;101107.44;5077003;28;20044;-73
2024/03/09 05:20:25;;;;;;;11.35;10.25;;;;;;;4.23;100.00;101126.53;5078360;28;20098;-73
2024/03/09 05:22:55;;;;;;;6.53;6.13;;;;;;;4.34;100.00;101126.94;5074141;28;20036;-73
2024/03/09 05:25:21;;;;;;;1.27;1.20;;;;;;;4.36;100.00;101127.88;5074547;28;20051;-72
2024/03/09 05:27:48;;;;;;;0.43;0.43;;;;;;;4.41;100.00;101121.13;5082682;28;20049;-72
2024/03/09 05:30:17;;;;;;;4.65;4.38;;;;;;;4.23;100.00;101123.91;5065105;28;20378;-71
2024/03/09 05:33:01;;;;;;;2.33;2.22;;;;;;;3.99;100.00;101092.75;5081428;28;20028;-73
2024/03/09 05:35:30;;;;;;;;;;;;;;;4.58;100.00;101136.44;5082000;28;20048;-72
2024/03/09 05:37:58;;;;;;;1.70;1.60;;;;;;;4.30;100.00;101093.88;5068976;28;19928;-72
2024/03/09 05:40:26;;;;;;;5.57;5.28;;;;;;;4.44;100.00;101123.81;5071040;28;20366;-72
2024/03/09 05:42:54;;;;;;;0.50;0.50;;;;;;;4.46;100.00;101110.91;5068737;28;20127;-71
2024/03/09 05:45:22;;;;;;;2.95;2.78;;;;;;;4.60;100.00;101129.59;5072115;28;20052;-72
2024/03/09 05:47:50;;;;;;;2.67;2.58;;;;;;;4.69;100.00;101137.72;5067579;28;20051;-72
2024/03/09 05:50:16;;;;;;;1.63;1.52;;;;;;;4.57;100.00;101100.91;5063901;28;20057;-71
2024/03/09 05:52:53;;;;;;;2.45;2.30;;;;;;;4.70;100.00;101136.00;5068806;28;20056;-73
2024/03/09 05:55:20;;;;;;;2.30;2.20;;;;;;;4.75;100.00;101143.16;5055629;28;20107;-73
2024/03/09 05:57:49;;;;;;;0.50;0.50;;;;;;;4.58;100.00;101100.06;5065977;28;20678;-71
2024/03/09 06:00:19;;;;;;;6.18;3.13;;;;;;;4.52;100.00;101102.44;5069000;28;20169;-72
2024/03/09 06:02:48;;;;;;;3.33;3.22;;;;;;;4.86;100.00;101138.31;5078634;28;20032;-75
2024/03/09 06:05:15;;;;;;;3.55;3.35;;;;;;;4.92;100.00;101127.25;5069309;28;20056;-71
2024/03/09 06:07:42;;;;;;;1.38;1.33;;;;;;;4.97;100.00;101136.09;5071952;28;20048;-73
2024/03/09 06:10:13;;;;;;;0.80;0.80;;;;;;;4.89;100.00;101098.53;5080751;28;20047;-71
2024/03/09 06:12:41;;;;;;;0.50;0.50;;;;;;;4.91;100.00;101100.34;5054643;28;20041;-71
2024/03/09 06:15:08;;;;;;;5.65;5.35;;;;;;;5.02;100.00;101096.38;5068300;28;20032;-71
2024/03/09 06:17:34;;;;;;;4.03;1.83;;;;;;;4.95;100.00;101094.41;5085177;28;20043;-73
2024/03/09 06:20:03;;;;;;;1.17;1.17;;;;;;;5.22;100.00;101132.56;5075348;28;20052;-72
2024/03/09 06:22:33;;;;;;;2.47;1.75;;;;;;;5.34;100.00;101127.81;5072964;28;20150;-72
2024/03/09 06:25:01;;;;;;;3.25;3.10;;;;;;;5.21;100.00;101094.41;5077402;28;20044;-71
2024/03/09 06:27:32;;;;;;;0.95;0.95;;;;;;;5.38;100.00;101110.56;5076009;28;20048;-71
2024/03/09 06:29:59;;;;;;;1.75;1.65;;;;;;;5.28;100.00;101092.03;5074889;28;20036;-72
2024/03/09 06:32:28;;;;;;;1.30;1.20;;;;;;;5.61;100.00;101126.91;5070051;28;20037;-72
2024/03/09 06:34:54;;;;;;;0.90;0.85;;;;;;;5.50;100.00;101127.47;5057049;28;20121;-73
2024/03/09 06:37:20;;;;;;;6.97;6.45;;;;;;;5.33;100.00;101091.31;5065867;28;20429;-75
2024/03/09 06:39:46;;;;;;;0.30;0.30;;;;;;;5.28;100.00;101131.06;5071053;28;20040;-74
2024/03/09 06:42:13;;;;;;;4.90;4.60;;;;;;;5.49;100.00;101132.59;5072125;28;20039;-71
2024/03/09 06:44:39;;;;;;;1.05;1.02;;;;;;;5.59;100.00;101128.56;5076202;28;20164;-74
2024/03/09 06:47:07;;;;;;;1.23;1.23;;;;;;;5.66;100.00;101134.00;5066362;28;20431;-71
2024/03/09 06:49:36;;;;;;;2.15;1.38;;;;;;;5.67;100.00;101138.41;5073845;28;20149;-71
2024/03/09 06:52:02;;;;;;;3.47;3.33;;;;;;;5.71;100.00;101135.06;5067176;28;20047;-74
2024/03/09 06:54:30;;;;;;;0.60;0.60;;;;;;;5.67;100.00;101099.34;5065166;28;20053;-71
2024/03/09 06:56:56;;;;;;;13.88;11.65;;;;;;;5.71;100.00;101129.88;5073290;28;20046;-73
2024/03/09 06:59:22;;;;;;;1.40;1.30;;;;;;;6.05;100.00;101138.72;5078477;28;20076;-72
2024/03/09 07:01:57;;;;;;;5.85;5.50;;;;;;;6.01;100.00;101139.47;5058928;28;20127;-71
2024/03/09 07:04:27;;;;;;;1.25;1.20;;;;;;;6.10;100.00;101144.06;5074748;28;20785;-71
2024/03/09 07:06:53;;;;;;;0.60;0.60;;;;;;;6.07;100.00;101125.75;5078342;28;20040;-73
2024/03/09 07:09:20;;;;;;;0.77;0.77;;;;;;;6.28;100.00;101134.19;5080280;28;20039;-71
2024/03/09 07:11:46;;;;;;;0.20;0.20;;;;;;;6.14;100.00;101091.22;5077498;28;20037;-72
2024/03/09 07:14:13;;;;;;;26.35;23.98;;;;;;;6.30;100.00;101111.69;5075316;28;20536;-72
2024/03/09 07:16:39;;;;;;;1.02;1.02;;;;;;;6.16;100.00;101086.03;5074699;28;20043;-72
2024/03/09 07:19:05;;;;;;;0.65;0.65;;;;;;;6.60;100.00;101131.59;5077721;28;20565;-72
2024/03/09 07:21:31;;;;;;;1.58;1.48;;;;;;;6.58;100.00;101095.91;5084756;28;20127;-72
2024/03/09 07:23:58;;;;;;;6.32;4.03;;;;;;;6.77;100.00;101126.88;5085571;28;20082;-73
2024/03/09 07:26:25;;;;;;;0.25;0.25;;;;;;;6.74;100.00;101100.69;5078523;28;20067;-72
2024/03/09 07:28:54;;;;;;;3.30;3.13;;;;;;;6.90;100.00;101108.06;5080183;28;20056;-72
2024/03/09 07:31:25;;;;;;;5.90;5.57;;;;;;;6.60;100.00;101075.97;5051400;28;20711;-82
2024/03/09 07:33:53;;;;;;;4.28;3.92;;;;;;;6.63;100.00;101104.75;5056473;28;20106;-80
2024/03/09 07:36:20;;;;;;;4.97;4.72;;;;;;;6.56;100.00;101093.28;5082407;28;20039;-80
2024/03/09 07:38:55;;;;;;;2.35;2.15;;;;;;;6.65;100.00;101127.44;5067175;28;20028;-79
2024/03/09 07:41:20;;;;;;;0.40;0.40;;;;;;;6.92;100.00;101126.38;5075099;28;20092;-82
2024/03/09 07:43:51;;;;;;;0.75;0.75;;;;;;;7.06;100.00;101104.16;5070301;28;20043;-80
2024/03/09 07:46:19;;;;;;;3.55;3.13;;;;;;;7.29;100.00;101112.56;5079526;28;20427;-81
2024/03/09 07:48:45;;;;;;;0.55;0.55;;;;;;;6.71;100.00;101114.53;5076700;28;20040;-80
2024/03/09 07:51:11;;;;;;;2.22;2.13;;;;;;;7.07;100.00;101113.75;5048278;28;20105;-81
2024/03/09 07:53:40;;;;;;;0.98;0.98;;;;;;;7.56;100.00;101098.38;5073106;28;20475;-80
2024/03/09 07:56:06;;;;;;;3.22;3.10;;;;;;;7.46;100.00;101073.78;5076242;28;20113;-80
2024/03/09 07:58:31;;;;;;;0.30;0.30;;;;;;;7.85;100.00;101109.50;5053023;28;20575;-81
2024/03/09 08:00:57;;;;;;;2.05;1.95;;;;;;;7.91;100.00;101083.50;5087647;28;20132;-81
2024/03/09 08:03:24;;;;;;;0.40;0.40;;;;;;;8.06;100.00;101080.34;5052295;28;20048;-82
2024/03/09 08:05:51;;;;;;;0.55;0.55;;;;;;;8.15;100.00;101090.13;5089495;28;20042;-80
2024/03/09 08:08:17;;;;;;;7.68;7.10;;;;;;;8.10;100.00;101083.88;5072687;28;20091;-82
2024/03/09 08:10:54;;;;;;;1.52;1.42;;;;;;;7.98;100.00;101108.03;5073991;28;20059;-81
2024/03/09 08:13:23;;;;;;;2.75;1.05;;;;;;;8.09;100.00;101111.78;5089355;28;20076;-81
2024/03/09 08:15:48;;;;;;;1.23;1.13;;;;;;;7.68;100.00;101069.97;5093142;28;20036;-81
2024/03/09 08:18:14;;;;;;;0.50;0.50;;;;;;;7.90;100.00;101112.22;5084321;28;20519;-82
2024/03/09 08:20:40;;;;;;;0.32;0.32;;;;;;;8.19;100.00;101113.75;5080065;28;20105;-80
2024/03/09 08:23:06;;;;;;;0.95;0.95;;;;;;;8.16;100.00;101082.28;5078058;28;20679;-80
2024/03/09 08:25:32;;;;;;;2.50;2.40;;;;;;;8.57;100.00;101113.66;5060913;28;20036;-81
2024/03/09 08:28:00;;;;;;;8.95;8.23;;;;;;;7.96;100.00;101062.69;5077881;28;20580;-81
2024/03/09 08:30:27;;;;;;;2.60;2.50;;;;;;;8.41;100.00;101102.00;5088669;28;20181;-81
2024/03/09 08:32:58;;;;;;;0.75;0.75;;;;;;;7.77;100.00;101106.75;5084332;28;20044;-82
2024/03/09 08:35:24;;;;;;;11.50;6.07;;;;;;;8.44;100.00;101109.91;5082543;28;20056;-81
2024/03/09 08:37:51;;;;;;;29.50;24.95;;;;;;;7.88;100.00;101119.16;5063839;28;20052;-81
2024/03/09 08:40:30;;;;;;;1.05;1.02;;;;;;;7.46;100.00;101109.47;5079939;28;20586;-80
2024/03/09 08:42:58;;;;;;;1.10;0.82;;;;;;;7.55;100.00;101083.56;5059333;28;20076;-82
2024/03/09 08:45:25;;;;;;;2.85;2.65;;;;;;;7.89;100.00;101076.47;5085782;28;20097;-81
2024/03/09 08:47:52;;;;;;;8.60;7.00;;;;;;;8.26;100.00;101104.28;5068879;28;20036;-80
2024/03/09 08:50:22;;;;;;;1.73;1.65;;;;;;;8.33;100.00;101073.91;5078134;28;20451;-80
2024/03/09 08:52:49;;;;;;;5.70;5.18;;;;;;;8.08;100.00;101094.34;5083429;28;20666;-80
2024/03/09 08:55:15;;;;;;;5.97;5.68;;;;;;;8.49;100.00;101062.94;5061170;28;20561;-81
2024/03/09 08:57:42;;;;;;;2.58;2.42;;;;;;;8.67;100.00;101096.41;5073216;28;20060;-87
2024/03/09 09:00:09;;;;;;;0.85;0.82;;;;;;;8.25;100.00;101056.34;5075761;28;20036;-83
2024/03/09 09:02:38;;;;;;;1.25;1.15;;;;;;;8.23;100.00;101091.16;5077995;28;20051;-85
2024/03/09 09:05:14;;;;;;;2.03;1.90;;;;;;;8.84;100.00;101060.06;5059801;28;20116;-86
2024/03/09 09:07:45;;;;;;;0.30;0.30;;;;;;;8.76;100.00;101086.13;5081922;28;20062;-85
2024/03/09 09:10:18;;;;;;;6.28;4.10;;;;;;;9.36;100.00;101091.47;5070453;28;20056;-83
2024/03/09 09:12:45;;;;;;;2.83;2.63;;;;;;;9.51;100.00;101082.13;5081203;28;20163;-83
2024/03/09 09:15:16;;;;;;;0.40;0.40;;;;;;;9.75;100.00;101083.34;5069589;28;20055;-87
2024/03/09 09:17:42;;;;;;;2.08;1.48;;;;;;;9.45;100.00;101084.63;5057092;28;20028;-86
2024/03/09 09:20:11;;;;;;;0.98;0.98;;;;;;;9.32;100.00;101076.56;5072066;28;20549;-84
2024/03/09 09:22:46;;;;;;;10.40;9.55;;;;;;;8.35;100.00;101067.84;5072951;28;20155;-82
2024/03/09 09:25:12;;;;;;;9.57;8.68;;;;;;;9.29;100.00;101064.31;5062617;28;20044;-82
2024/03/09 09:27:43;;;;;;;4.53;4.13;;;;;;;9.40;100.00;101073.22;5082831;28;20078;-79
2024/03/09 09:30:09;;;;;;;0.73;0.73;;;;;;;9.43;100.00;101028.72;5075502;28;20105;-79
2024/03/09 09:32:35;;;;;;;2.05;1.95;;;;;;;9.63;100.00;101065.69;5061069;28;20742;-81
2024/03/09 09:35:02;;;;;;;1.27;1.25;;;;;;;8.69;100.00;101051.97;5073283;28;20048;-79
2024/03/09 09:37:28;;;;;;;24.33;10.82;;;;;;;9.46;100.00;101038.38;5081260;28;20484;-77
2024/03/09 09:39:55;;;;;;;2.65;2.45;;;;;;;9.62;100.00;101070.91;5079487;28;20078;-87
2024/03/09 09:42:28;;;;;;;1.15;1.00;;;;;;;9.36;100.00;101034.72;5081233;28;20985;-77
2024/03/09 09:44:56;;;;;;;13.02;8.18;;;;;;;9.63;100.00;101065.69;5087415;28;20032;-78
2024/03/09 09:47:29;;;;;;;2.50;2.30;;;;;;;9.66;100.00;101026.44;5078296;28;20072;-78
2024/03/09 09:49:56;;;;;;;3.30;3.10;;;;;;;9.90;100.00;101053.81;5090773;28;20040;-84
2024/03/09 09:52:25;;;;;;;0.20;0.20;;;;;;;9.91;100.00;101072.19;5077328;28;20131;-76
2024/03/09 09:54:58;;;;;;;7.22;5.70;;;;;;;9.47;100.00;101041.00;5083592;28;20040;-77
2024/03/09 09:57:28;;;;;;;9.18;5.75;;;;;;;9.65;100.00;101064.00;5079511;28;20036;-78
2024/03/09 09:59:55;;;;;;;6.18;5.20;;;;;;;9.74;100.00;101063.25;5086609;28;20044;-80
2024/03/09 10:02:24;;;;;;;8.80;7.88;;;;;;;9.84;100.00;101067.75;5090429;28;20047;-77
2024/03/09 10:04:51;;;;;;;10.45;8.68;;;;;;;9.70;100.00;101019.50;5091678;28;20039;-77
2024/03/09 10:07:16;;;;;;;15.10;9.10;;;;;;;9.62;100.00;101055.19;5072276;28;20056;-80
2024/03/09 10:09:42;;;;;;;1.52;1.42;;;;;;;10.07;100.00;101065.44;5088021;28;20048;-77
2024/03/09 10:12:22;;;;;;;9.25;7.63;;;;;;;10.07;100.00;101036.59;5090456;28;20471;-76
2024/03/09 10:14:49;;;;;;;0.30;0.30;;;;;;;10.13;100.00;101028.75;5085557;28;20024;-76
2024/03/09 10:17:15;;;;;;;12.68;7.90;;;;;;;10.31;100.00;101070.09;5088781;28;20200;-78
2024/03/09 10:19:40;;;;;;;3.40;2.53;;;;;;;10.25;100.00;101061.25;5088957;28;20051;-77
2024/03/09 10:22:08;;;;;;;0.35;0.35;;;;;;;9.54;100.00;101035.88;5059822;28;20044;-80
2024/03/09 10:24:34;;;;;;;0.88;0.85;;;;;;;10.23;100.00;101053.38;5075307;28;20169;-79
2024/03/09 10:27:06;;;;;;;5.32;4.82;;;;;;;10.26;100.00;101047.28;5091719;28;20036;-82
2024/03/09 10:29:31;;;;;;;7.38;6.78;;;;;;;10.40;100.00;101030.00;5085716;28;20035;-80
2024/03/09 10:31:58;;;;;;;1.05;0.93;;;;;;;10.14;100.00;101027.06;5088999;28;20044;-75
2024/03/09 10:34:30;;;;;;;3.75;3.42;;;;;;;10.52;100.00;101037.97;5063152;28;20145;-76
2024/03/09 10:36:58;;;;;;;9.73;5.03;;;;;;;10.60;100.00;101038.06;5070759;28;20051;-77
2024/03/09 10:39:24;;;;;;;4.80;4.40;;;;;;;10.34;100.00;101017.66;5091515;28;20044;-78
2024/03/09 10:41:53;;;;;;;10.15;9.10;;;;;;;9.46;100.00;100991.25;5072514;28;20028;-77
2024/03/09 10:44:19;;;;;;;6.20;4.80;;;;;;;10.38;100.00;101028.22;5095000;28;20058;-77
2024/03/09 10:46:47;;;;;;;5.88;5.28;;;;;;;10.90;100.00;100986.69;5089973;28;20044;-80
2024/03/09 10:49:20;;;;;;;13.90;4.90;;;;;;;10.72;100.00;101024.16;5075237;28;20054;-79
2024/03/09 10:51:50;;;;;;;6.18;4.40;;;;;;;10.62;100.00;100983.84;5077921;28;20086;-80
2024/03/09 10:54:50;;;;;;;8.70;5.80;;;;;;;11.76;100.00;101001.25;5079895;28;20043;-78
2024/03/09 10:57:22;;;;;;;8.70;7.75;;;;;;;12.25;94.46;100992.69;5070285;28;20098;-76
2024/03/09 10:59:49;;;;;;;9.23;3.65;;;;;;;12.70;83.05;101000.66;5100144;28;20164;-77
2024/03/09 11:02:17;;;;;;;1.45;1.35;;;;;;;12.58;80.21;100972.56;5097819;28;20036;-81
2024/03/09 11:04:49;;;;;;;4.15;3.78;;;;;;;12.48;80.10;100969.06;5071481;28;20052;-79
2024/03/09 11:07:22;;;;;;;4.80;2.57;;;;;;;12.18;88.49;101001.44;5084996;28;20498;-79
2024/03/09 11:09:53;;;;;;;28.02;4.40;;;;;;;12.20;87.28;100992.69;5055409;28;20048;-79
2024/03/09 11:12:20;;;;;;;10.27;9.27;;;;;;;13.12;84.45;100988.38;5089762;28;20431;-77
2024/03/09 11:14:51;;;;;;;6.90;5.43;;;;;;;13.38;78.92;100991.00;5092325;28;20097;-78
2024/03/09 11:17:23;;;;;;;5.65;5.00;;;;;;;13.58;78.31;100988.28;5079361;28;20041;-78
2024/03/09 11:19:59;;;;;;;5.40;4.97;;;;;;;13.07;83.34;100975.19;5090501;28;20056;-77
2024/03/09 11:22:45;;;;;;;9.57;7.75;;;;;;;13.25;84.24;100985.72;5083890;28;20040;-81
2024/03/09 11:25:12;;;;;;;6.43;3.22;;;;;;;13.15;81.20;100943.56;5088799;28;20044;-80
2024/03/09 11:27:41;;;;;;;10.07;5.30;;;;;;;13.25;81.71;100984.81;5100075;28;20119;-77